createdAt,value
2022-11-21T00:01:18.008Z,2.10
2022-11-21T00:03:45.909Z,3.40
2022-11-21T00:06:13.623Z,2.35
2022-11-21T00:08:41.550Z,2.53
2022-11-21T00:11:09.085Z,2.80
2022-11-21T00:13:36.560Z,2.70
2022-11-21T00:16:12.963Z,3.03
2022-11-21T00:18:40.656Z,2.47
2022-11-21T00:21:13.644Z,2.60
2022-11-21T00:23:41.017Z,2.85
2022-11-21T00:26:10.055Z,2.53
2022-11-21T00:28:37.789Z,3.25
2022-11-21T00:31:06.030Z,3.70
2022-11-21T00:33:35.860Z,2.85
2022-11-21T00:36:08.242Z,3.13
2022-11-21T00:38:36.222Z,2.83
2022-11-21T00:41:03.862Z,3.03
2022-11-21T00:43:31.320Z,2.50
2022-11-21T00:46:01.337Z,2.55
2022-11-21T00:48:29.952Z,3.35
2022-11-21T00:50:57.435Z,2.50
2022-11-21T00:53:24.763Z,3.53
2022-11-21T00:55:52.082Z,2.92
2022-11-21T00:58:19.411Z,3.13
2022-11-21T01:00:46.969Z,2.53
2022-11-21T01:03:14.338Z,2.85
2022-11-21T01:05:41.898Z,2.63
2022-11-21T01:08:09.297Z,2.75
2022-11-21T01:10:37.103Z,2.70
2022-11-21T01:13:04.500Z,2.78
2022-11-21T01:15:31.911Z,2.88
2022-11-21T01:17:59.208Z,2.97
2022-11-21T01:20:26.561Z,2.67
2022-11-21T01:22:53.874Z,3.25
2022-11-21T01:25:21.231Z,2.63
2022-11-21T01:27:48.583Z,2.70
2022-11-21T01:30:16.061Z,2.65
2022-11-21T01:32:43.446Z,2.92
2022-11-21T01:35:10.881Z,3.10
2022-11-21T01:37:38.251Z,2.60
2022-11-21T01:40:05.927Z,3.17
2022-11-21T01:43:00.222Z,2.58
2022-11-21T01:46:05.469Z,2.05
2022-11-21T01:48:44.961Z,2.40
2022-11-21T01:51:37.883Z,3.05
2022-11-21T01:54:17.166Z,2.50
2022-11-21T01:56:59.501Z,2.42
2022-11-21T01:59:38.993Z,2.88
2022-11-21T02:02:08.909Z,2.35
2022-11-21T02:04:36.995Z,3.10
2022-11-21T02:07:06.968Z,2.47
2022-11-21T02:09:41.076Z,4.20
2022-11-21T02:12:30.666Z,3.05
2022-11-21T02:14:59.322Z,2.22
2022-11-21T02:17:29.979Z,3.08
2022-11-21T02:20:07.210Z,2.65
2022-11-21T02:22:49.249Z,2.70
2022-11-21T02:25:38.091Z,2.60
2022-11-21T02:28:11.534Z,2.80
2022-11-21T02:30:41.382Z,2.40
2022-11-21T02:33:09.179Z,2.58
2022-11-21T02:35:36.642Z,2.63
2022-11-21T02:38:26.971Z,3.05
2022-11-21T02:41:26.354Z,2.50
2022-11-21T02:44:02.637Z,3.13
2022-11-21T02:46:30.074Z,3.50
2022-11-21T02:48:59.166Z,2.70
2022-11-21T02:51:26.542Z,2.90
2022-11-21T02:53:53.935Z,2.90
2022-11-21T02:56:21.341Z,2.97
2022-11-21T02:58:49.162Z,2.53
2022-11-21T03:01:16.629Z,2.50
2022-11-21T03:03:44.038Z,3.15
2022-11-21T03:06:11.427Z,2.78
2022-11-21T03:08:38.818Z,2.10
2022-11-21T03:11:06.159Z,2.80
2022-11-21T03:13:33.513Z,2.72
2022-11-21T03:16:00.885Z,2.40
2022-11-21T03:18:28.266Z,2.40
2022-11-21T03:20:57.408Z,2.75
2022-11-21T03:23:24.806Z,2.83
2022-11-21T03:25:52.165Z,2.63
2022-11-21T03:28:19.509Z,3.22
2022-11-21T03:30:47.494Z,2.55
2022-11-21T03:33:14.878Z,3.15
2022-11-21T03:35:42.225Z,2.15
2022-11-21T03:38:09.576Z,2.75
2022-11-21T03:40:36.973Z,2.97
2022-11-21T03:43:07.934Z,2.63
2022-11-21T03:45:35.300Z,2.70
2022-11-21T03:48:02.688Z,2.92
2022-11-21T03:50:30.059Z,2.90
2022-11-21T03:52:57.412Z,2.90
2022-11-21T03:55:24.800Z,2.92
2022-11-21T03:57:52.126Z,2.58
2022-11-21T04:00:19.731Z,2.97
2022-11-21T04:02:47.135Z,3.00
2022-11-21T04:05:14.554Z,3.95
2022-11-21T04:07:42.041Z,3.55
2022-11-21T04:10:09.955Z,4.03
2022-11-21T04:12:37.375Z,3.75
2022-11-21T04:15:09.310Z,3.72
2022-11-21T04:17:39.574Z,3.03
2022-11-21T04:20:07.287Z,4.03
2022-11-21T04:22:34.635Z,4.22
2022-11-21T04:25:02.088Z,3.70
2022-11-21T04:27:29.433Z,4.35
2022-11-21T04:29:56.769Z,3.70
2022-11-21T04:32:24.129Z,3.33
2022-11-21T04:34:51.454Z,3.92
2022-11-21T04:37:18.842Z,2.63
2022-11-21T04:39:46.177Z,3.28
2022-11-21T04:42:13.475Z,3.65
2022-11-21T04:44:40.843Z,3.10
2022-11-21T04:47:08.182Z,2.95
2022-11-21T04:49:35.502Z,2.85
2022-11-21T04:52:03.136Z,3.05
2022-11-21T04:54:30.712Z,3.20
2022-11-21T04:56:58.617Z,3.22
2022-11-21T04:59:26.008Z,3.72
2022-11-21T05:01:53.364Z,3.42
2022-11-21T05:04:20.766Z,2.58
2022-11-21T05:06:48.125Z,3.67
2022-11-21T05:09:15.445Z,2.75
2022-11-21T05:12:01.467Z,2.78
2022-11-21T05:14:29.095Z,2.63
2022-11-21T05:16:56.573Z,2.70
2022-11-21T05:19:23.888Z,3.83
2022-11-21T05:21:51.458Z,4.00
2022-11-21T05:24:18.852Z,3.45
2022-11-21T05:26:46.229Z,3.38
2022-11-21T05:29:13.776Z,3.45
2022-11-21T05:31:41.306Z,4.30
2022-11-21T05:34:08.865Z,3.35
2022-11-21T05:36:36.263Z,3.60
2022-11-21T05:39:03.691Z,4.40
2022-11-21T05:41:31.243Z,3.40
2022-11-21T05:43:58.712Z,3.22
2022-11-21T05:46:26.962Z,3.05
2022-11-21T05:48:55.328Z,3.42
2022-11-21T05:51:22.825Z,3.75
2022-11-21T05:53:50.379Z,3.15
2022-11-21T05:56:19.597Z,2.95
2022-11-21T05:58:47.167Z,3.40
2022-11-21T06:01:15.778Z,3.25
2022-11-21T06:03:43.419Z,2.88
2022-11-21T06:06:14.163Z,2.88
2022-11-21T06:08:47.649Z,2.60
2022-11-21T06:11:16.509Z,3.08
2022-11-21T06:13:44.373Z,3.83
2022-11-21T06:16:18.273Z,3.85
2022-11-21T06:18:55.137Z,3.17
2022-11-21T06:21:28.351Z,3.13
2022-11-21T06:23:57.839Z,3.35
2022-11-21T06:26:26.813Z,3.05
2022-11-21T06:28:54.862Z,4.70
2022-11-21T06:31:24.512Z,3.70
2022-11-21T06:33:56.735Z,3.00
2022-11-21T06:36:24.770Z,3.97
2022-11-21T06:38:54.910Z,4.10
2022-11-21T06:41:25.824Z,4.32
2022-11-21T06:43:53.419Z,4.13
2022-11-21T06:46:20.736Z,3.92
2022-11-21T06:48:48.087Z,3.85
2022-11-21T06:51:24.075Z,3.30
2022-11-21T06:53:56.472Z,3.78
2022-11-21T06:56:25.852Z,3.53
2022-11-21T06:58:53.538Z,3.95
2022-11-21T07:01:20.921Z,4.30
2022-11-21T07:03:48.283Z,3.30
2022-11-21T07:06:15.818Z,3.03
2022-11-21T07:08:43.151Z,3.53
2022-11-21T07:11:29.301Z,2.78
2022-11-21T07:13:56.697Z,3.97
2022-11-21T07:16:26.347Z,4.43
2022-11-21T07:18:54.007Z,3.60
2022-11-21T07:21:21.380Z,3.90
2022-11-21T07:23:48.913Z,4.25
2022-11-21T07:26:16.275Z,3.20
2022-11-21T07:28:43.833Z,3.35
2022-11-21T07:31:13.956Z,3.55
2022-11-21T07:33:43.590Z,4.22
2022-11-21T07:36:12.291Z,3.70
2022-11-21T07:38:41.413Z,3.83
2022-11-21T07:41:10.195Z,3.83
2022-11-21T07:43:37.783Z,4.43
2022-11-21T07:46:05.200Z,4.30
2022-11-21T07:48:32.599Z,4.57
2022-11-21T07:51:03.963Z,3.90
2022-11-21T07:53:31.374Z,3.08
2022-11-21T07:55:59.783Z,3.35
2022-11-21T07:58:27.199Z,4.15
2022-11-21T08:00:54.660Z,3.67
2022-11-21T08:03:22.701Z,4.18
2022-11-21T08:05:50.157Z,3.67
2022-11-21T08:08:17.553Z,4.07
2022-11-21T08:10:46.031Z,3.55
2022-11-21T08:13:14.141Z,3.83
2022-11-21T08:15:42.054Z,3.60
2022-11-21T08:18:11.796Z,2.70
2022-11-21T08:20:39.777Z,3.15
2022-11-21T08:23:07.634Z,4.93
2022-11-21T08:25:37.833Z,3.33
2022-11-21T08:28:05.720Z,3.70
2022-11-21T08:30:34.543Z,3.22
2022-11-21T08:33:02.225Z,4.00
2022-11-21T08:35:30.175Z,3.17
2022-11-21T08:37:59.214Z,3.58
2022-11-21T08:40:28.045Z,2.97
2022-11-21T08:42:59.421Z,4.47
2022-11-21T08:45:26.795Z,2.83
2022-11-21T08:47:54.806Z,3.15
2022-11-21T08:50:23.216Z,3.85
2022-11-21T08:52:50.670Z,3.72
2022-11-21T08:55:18.139Z,3.55
2022-11-21T08:57:45.472Z,3.60
2022-11-21T09:00:13.915Z,3.00
2022-11-21T09:02:41.542Z,4.40
2022-11-21T09:05:09.495Z,4.45
2022-11-21T09:07:37.324Z,3.83
2022-11-21T09:10:05.380Z,3.03
2022-11-21T09:12:32.801Z,2.55
2022-11-21T09:15:18.580Z,3.47
2022-11-21T09:18:04.094Z,2.55
2022-11-21T09:20:42.815Z,2.42
2022-11-21T09:23:12.593Z,2.40
2022-11-21T09:25:40.381Z,2.53
2022-11-21T09:28:09.636Z,2.50
2022-11-21T09:30:37.472Z,2.78
2022-11-21T09:33:07.504Z,3.28
2022-11-21T09:35:35.074Z,2.42
2022-11-21T09:38:03.607Z,3.47
2022-11-21T09:40:32.620Z,2.65
2022-11-21T09:43:06.134Z,2.42
2022-11-21T09:45:37.360Z,2.20
2022-11-21T09:48:12.631Z,3.15
2022-11-21T09:50:48.213Z,2.95
2022-11-21T09:53:34.641Z,2.70
2022-11-21T09:56:14.040Z,2.83
2022-11-21T09:59:05.325Z,2.55
2022-11-21T10:01:32.922Z,2.53
2022-11-21T10:04:02.298Z,2.92
2022-11-21T10:06:32.825Z,2.35
2022-11-21T10:09:26.330Z,2.67
2022-11-21T10:12:40.011Z,2.65
2022-11-21T10:15:13.323Z,2.55
2022-11-21T10:17:55.578Z,3.25
2022-11-21T10:20:37.430Z,3.28
2022-11-21T10:23:19.529Z,3.25
2022-11-21T10:26:06.680Z,2.20
2022-11-21T10:28:55.404Z,2.22
2022-11-21T10:31:23.025Z,3.65
2022-11-21T10:33:54.313Z,3.35
2022-11-21T10:36:33.636Z,3.35
2022-11-21T10:39:07.441Z,3.53
2022-11-21T10:41:46.177Z,3.25
2022-11-21T10:44:43.315Z,3.63
2022-11-21T10:47:28.970Z,3.42
2022-11-21T10:50:31.434Z,4.03
2022-11-21T10:53:37.841Z,2.75
2022-11-21T10:56:12.641Z,3.08
2022-11-21T10:58:51.645Z,2.95
2022-11-21T11:01:27.883Z,3.08
2022-11-21T11:07:00.164Z,2.72
2022-11-21T11:09:28.376Z,3.40
2022-11-21T11:12:18.749Z,3.78
2022-11-21T11:14:51.999Z,3.50
2022-11-21T11:17:33.497Z,3.50
2022-11-21T11:20:31.430Z,3.13
2022-11-21T11:22:58.951Z,2.55
2022-11-21T11:25:26.524Z,2.83
2022-11-21T11:27:53.941Z,3.72
2022-11-21T11:30:21.506Z,4.35
2022-11-21T11:32:48.911Z,4.50
2022-11-21T11:35:34.198Z,3.67
2022-11-21T11:38:04.348Z,4.22
2022-11-21T11:40:42.485Z,3.88
2022-11-21T11:43:34.206Z,3.95
2022-11-21T11:46:48.036Z,3.88
2022-11-21T11:49:56.889Z,4.40
2022-11-21T11:52:28.025Z,3.70
2022-11-21T11:57:37.175Z,2.70
2022-11-21T12:00:04.609Z,2.88
2022-11-21T12:02:47.099Z,2.92
2022-11-21T12:05:29.680Z,2.70
2022-11-21T12:11:16.032Z,3.20
2022-11-21T12:13:44.180Z,3.42
2022-11-21T12:16:14.422Z,3.28
2022-11-21T12:18:51.467Z,4.23
2022-11-21T12:21:19.643Z,3.65
2022-11-21T12:23:58.015Z,4.38
2022-11-21T12:26:33.077Z,3.63
2022-11-21T12:29:32.385Z,3.50
2022-11-21T12:32:05.568Z,4.22
2022-11-21T12:35:18.462Z,4.20
2022-11-21T12:37:51.360Z,3.58
2022-11-21T12:40:43.163Z,4.82
2022-11-21T12:43:43.107Z,3.83
2022-11-21T12:46:59.825Z,3.58
2022-11-21T12:49:54.387Z,3.65
2022-11-21T12:53:09.226Z,3.53
2022-11-21T12:55:40.681Z,3.78
2022-11-21T12:58:13.814Z,3.20
2022-11-21T13:01:02.065Z,3.25
2022-11-21T13:03:44.845Z,3.30
2022-11-21T13:06:19.355Z,2.95
2022-11-21T13:08:49.572Z,2.22
2022-11-21T13:12:01.386Z,3.38
2022-11-21T13:14:36.500Z,2.63
2022-11-21T13:17:11.986Z,2.60
2022-11-21T13:20:06.374Z,2.22
2022-11-21T13:22:36.477Z,3.10
2022-11-21T13:25:04.868Z,2.33
2022-11-21T13:27:41.827Z,2.00
2022-11-21T13:30:10.423Z,2.65
2022-11-21T13:32:45.425Z,1.65
2022-11-21T13:35:21.765Z,2.10
2022-11-21T13:37:52.544Z,1.85
2022-11-21T13:40:31.667Z,1.90
2022-11-21T13:43:34.192Z,1.98
2022-11-21T13:46:02.107Z,1.75
2022-11-21T13:48:35.489Z,2.03
2022-11-21T13:51:11.662Z,1.38
2022-11-21T13:53:58.672Z,1.27
2022-11-21T13:56:59.204Z,1.48
2022-11-21T13:59:40.547Z,1.60
2022-11-21T14:02:19.086Z,1.35
2022-11-21T14:05:00.568Z,1.10
2022-11-21T14:07:34.379Z,1.85
2022-11-21T14:10:17.659Z,1.58
2022-11-21T14:12:49.743Z,1.60
2022-11-21T14:15:41.429Z,1.50
2022-11-21T14:18:35.741Z,1.42
2022-11-21T14:21:04.543Z,1.45
2022-11-21T14:23:34.594Z,1.95
2022-11-21T14:26:21.266Z,2.00
2022-11-21T14:28:48.859Z,1.27
2022-11-21T14:31:16.253Z,1.02
2022-11-21T14:33:45.238Z,0.68
2022-11-21T14:36:27.663Z,1.58
2022-11-21T14:39:35.359Z,1.33
2022-11-21T14:41:57.190Z,1.30
2022-11-21T14:44:25.037Z,0.80
2022-11-21T14:47:19.851Z,1.58
2022-11-21T14:49:54.708Z,1.17
2022-11-21T14:52:31.595Z,1.17
2022-11-21T14:57:53.274Z,1.10
2022-11-21T15:00:57.296Z,1.15
2022-11-21T15:03:23.392Z,1.20
2022-11-21T15:06:05.752Z,1.60
2022-11-21T15:11:29.826Z,1.20
2022-11-21T15:14:20.290Z,1.58
2022-11-21T15:16:51.337Z,1.67
2022-11-21T15:19:24.573Z,2.05
2022-11-21T15:21:55.230Z,1.30
2022-11-21T15:24:42.835Z,1.38
2022-11-21T15:27:28.573Z,2.15
2022-11-21T15:30:22.063Z,1.75
2022-11-21T15:33:11.402Z,1.60
2022-11-21T15:36:05.061Z,1.88
2022-11-21T15:38:48.967Z,1.95
2022-11-21T15:41:16.286Z,1.70
2022-11-21T15:43:50.907Z,1.58
2022-11-21T15:46:28.402Z,2.10
2022-11-21T15:48:58.712Z,2.05
2022-11-21T15:51:59.721Z,2.60
2022-11-21T15:54:22.681Z,1.45
2022-11-21T15:56:50.106Z,2.08
2022-11-21T15:59:19.701Z,1.98
2022-11-21T16:01:47.096Z,1.80
2022-11-21T16:04:14.823Z,2.30
2022-11-21T16:06:42.310Z,2.28
2022-11-21T16:09:09.766Z,2.60
2022-11-21T16:11:38.087Z,2.10
2022-11-21T16:14:06.607Z,2.88
2022-11-21T16:16:42.603Z,2.50
2022-11-21T16:19:14.864Z,2.50
2022-11-21T16:21:42.481Z,2.40
2022-11-21T16:24:10.077Z,2.38
2022-11-21T16:26:37.648Z,3.40
2022-11-21T16:29:05.790Z,2.22
2022-11-21T16:31:33.277Z,3.00
2022-11-21T16:34:00.995Z,2.70
2022-11-21T16:36:30.322Z,3.15
2022-11-21T16:39:01.799Z,5.30
2022-11-21T16:41:29.623Z,7.82
2022-11-21T16:43:57.190Z,5.50
2022-11-21T16:46:25.926Z,3.85
2022-11-21T16:49:03.078Z,3.17
2022-11-21T16:51:30.906Z,3.40
2022-11-21T16:54:01.718Z,2.83
2022-11-21T16:56:33.090Z,3.80
2022-11-21T16:59:00.511Z,3.58
2022-11-21T17:01:28.860Z,3.35
2022-11-21T17:03:56.429Z,3.42
2022-11-21T17:06:29.295Z,4.25
2022-11-21T17:08:59.765Z,4.43
2022-11-21T17:11:30.514Z,4.00
2022-11-21T17:14:03.718Z,3.40
2022-11-21T17:16:32.497Z,3.72
2022-11-21T17:19:02.149Z,3.00
2022-11-21T17:21:30.579Z,1.85
2022-11-21T17:23:58.647Z,1.30
2022-11-21T17:26:27.792Z,1.40
2022-11-21T17:28:57.906Z,1.48
2022-11-21T17:31:25.674Z,1.13
2022-11-21T17:33:55.428Z,1.02
2022-11-21T17:36:25.199Z,0.63
2022-11-21T17:38:53.090Z,0.52
2022-11-21T17:41:22.231Z,1.00
2022-11-21T17:43:52.983Z,0.50
2022-11-21T17:46:20.363Z,0.55
2022-11-21T17:48:55.065Z,0.85
2022-11-21T17:51:26.171Z,0.60
2022-11-21T17:53:53.776Z,0.52
2022-11-21T17:56:23.462Z,0.50
2022-11-21T17:58:52.145Z,0.50
2022-11-21T18:01:20.755Z,0.50
2022-11-21T18:03:53.451Z,0.50
2022-11-21T18:06:20.905Z,0.52
2022-11-21T18:08:48.780Z,0.57
2022-11-21T18:11:19.675Z,1.25
2022-11-21T18:13:48.380Z,1.10
2022-11-21T18:16:18.713Z,0.90
2022-11-21T18:18:46.160Z,0.60
2022-11-21T18:21:16.181Z,0.80
2022-11-21T18:23:47.208Z,0.65
2022-11-21T18:26:21.027Z,0.82
2022-11-21T18:29:01.641Z,0.80
2022-11-21T18:31:38.006Z,0.57
2022-11-21T18:34:06.808Z,0.50
2022-11-21T18:36:34.259Z,1.10
2022-11-21T18:39:08.761Z,1.17
2022-11-21T18:41:39.524Z,0.98
2022-11-21T18:44:08.987Z,1.00
2022-11-21T18:46:37.642Z,1.55
2022-11-21T18:49:06.820Z,1.27
2022-11-21T18:51:36.256Z,1.77
2022-11-21T18:54:08.276Z,1.50
2022-11-21T18:56:38.082Z,1.15
2022-11-21T18:59:06.553Z,3.00
2022-11-21T19:01:36.629Z,8.70
2022-11-21T19:04:04.837Z,6.43
2022-11-21T19:06:32.297Z,6.57
2022-11-21T19:08:59.921Z,2.55
2022-11-21T19:11:29.403Z,1.98
2022-11-21T19:13:59.226Z,1.60
2022-11-21T19:16:28.465Z,1.77
2022-11-21T19:19:26.417Z,1.35
2022-11-21T19:21:44.015Z,1.75
2022-11-21T19:24:16.468Z,1.90
2022-11-21T19:26:44.334Z,1.77
2022-11-21T19:29:11.716Z,1.35
2022-11-21T19:31:45.294Z,2.10
2022-11-21T19:34:14.909Z,2.05
2022-11-21T19:36:42.888Z,2.15
2022-11-21T19:39:10.880Z,2.13
2022-11-21T19:41:38.287Z,1.63
2022-11-21T19:44:05.871Z,2.30
2022-11-21T19:46:35.508Z,2.88
2022-11-21T19:49:03.844Z,1.95
2022-11-21T19:51:34.104Z,1.85
2022-11-21T19:54:06.421Z,2.87
2022-11-21T19:56:34.332Z,2.33
2022-11-21T19:59:01.784Z,2.10
2022-11-21T20:01:31.116Z,2.58
2022-11-21T20:04:00.877Z,2.72
2022-11-21T20:06:36.982Z,2.83
2022-11-21T20:09:08.637Z,2.47
2022-11-21T20:11:36.930Z,2.35
2022-11-21T20:14:05.735Z,1.98
2022-11-21T20:16:36.224Z,2.70
2022-11-21T20:19:09.800Z,2.28
2022-11-21T20:21:38.184Z,2.97
2022-11-21T20:24:06.386Z,2.50
2022-11-21T20:26:34.726Z,2.55
2022-11-21T20:29:02.860Z,2.33
2022-11-21T20:31:32.531Z,2.25
2022-11-21T20:34:02.361Z,2.28
2022-11-21T20:36:31.655Z,2.05
2022-11-21T20:39:01.098Z,2.50
2022-11-21T20:41:31.357Z,1.75
2022-11-21T20:46:51.945Z,2.25
2022-11-21T20:49:19.262Z,1.77
2022-11-21T20:54:35.202Z,2.08
2022-11-21T20:57:02.602Z,1.65
2022-11-21T20:59:30.174Z,2.30
2022-11-21T21:01:57.797Z,2.65
2022-11-21T21:04:25.157Z,2.65
2022-11-21T21:06:52.606Z,2.10
2022-11-21T21:09:19.913Z,2.53
2022-11-21T21:11:54.407Z,2.00
2022-11-21T21:14:22.355Z,2.00
2022-11-21T21:16:50.403Z,2.03
2022-11-21T21:19:18.050Z,2.00
2022-11-21T21:21:45.923Z,2.25
2022-11-21T21:24:14.419Z,2.22
2022-11-21T21:26:45.518Z,1.75
2022-11-21T21:31:51.050Z,2.03
2022-11-21T21:34:20.979Z,2.22
2022-11-21T21:36:49.118Z,1.90
2022-11-21T21:39:16.591Z,1.52
2022-11-21T21:41:45.908Z,2.75
2022-11-21T21:44:14.049Z,1.50
2022-11-21T21:46:41.612Z,1.50
2022-11-21T21:49:09.125Z,2.22
2022-11-21T21:51:37.349Z,2.13
2022-11-21T21:54:05.043Z,1.92
2022-11-21T21:56:32.631Z,2.65
2022-11-21T21:59:00.008Z,2.15
2022-11-21T22:01:28.935Z,1.50
2022-11-21T22:04:04.683Z,1.60
2022-11-21T22:06:35.605Z,1.58
2022-11-21T22:09:03.621Z,2.20
2022-11-21T22:11:35.286Z,1.55
2022-11-21T22:14:06.066Z,1.92
2022-11-21T22:16:33.474Z,1.42
2022-11-21T22:19:00.893Z,1.58
2022-11-21T22:21:33.541Z,1.40
2022-11-21T22:26:51.034Z,1.80
2022-11-21T22:29:18.458Z,2.05
2022-11-21T22:31:45.801Z,2.28
2022-11-21T22:34:14.174Z,2.00
2022-11-21T22:36:42.143Z,2.63
2022-11-21T22:39:09.615Z,1.67
2022-11-21T22:41:37.094Z,1.73
2022-11-21T22:44:04.701Z,1.40
2022-11-21T22:46:32.151Z,2.63
2022-11-21T22:48:59.879Z,1.55
2022-11-21T22:51:29.557Z,2.65
2022-11-21T22:53:57.601Z,1.88
2022-11-21T23:00:48.139Z,1.52
2022-11-21T23:03:15.497Z,2.13
2022-11-21T23:05:42.849Z,2.00
2022-11-21T23:08:10.246Z,1.30
2022-11-21T23:10:37.692Z,2.10
2022-11-21T23:13:05.082Z,1.70
2022-11-21T23:15:32.431Z,1.55
2022-11-21T23:17:59.788Z,1.85
2022-11-21T23:20:27.172Z,1.85
2022-11-21T23:22:56.582Z,2.00
2022-11-21T23:25:23.981Z,1.35
2022-11-21T23:27:51.568Z,2.15
2022-11-21T23:30:18.971Z,1.42
2022-11-21T23:32:46.358Z,1.13
2022-11-21T23:35:13.834Z,1.80
2022-11-21T23:37:41.145Z,1.48
2022-11-21T23:40:09.213Z,1.23
2022-11-21T23:42:36.578Z,1.25
2022-11-21T23:45:04.171Z,0.90
2022-11-21T23:47:31.519Z,1.40
2022-11-21T23:49:58.890Z,1.50
2022-11-21T23:52:26.256Z,1.52
2022-11-21T23:54:53.582Z,1.63
2022-11-21T23:57:21.019Z,1.13
2022-11-21T23:59:48.399Z,1.48
